createdAt,value
2018-07-01T00:00:43.221Z,35.53
2018-07-01T00:01:43.249Z,35.63
2018-07-01T00:02:43.271Z,35.63
2018-07-01T00:03:43.293Z,35.53
2018-07-01T00:04:43.316Z,35.63
2018-07-01T00:05:43.348Z,35.63
2018-07-01T00:06:43.366Z,35.53
2018-07-01T00:07:43.388Z,35.53
2018-07-01T00:08:43.412Z,35.53
2018-07-01T00:09:43.431Z,35.82
2018-07-01T00:10:43.489Z,35.72
2018-07-01T00:11:43.482Z,35.72
2018-07-01T00:12:43.506Z,35.63
2018-07-01T00:13:43.525Z,35.63
2018-07-01T00:14:43.551Z,36.21
2018-07-01T00:15:43.574Z,36.30
2018-07-01T00:16:43.597Z,36.11
2018-07-01T00:17:43.626Z,36.21
2018-07-01T00:18:43.646Z,36.21
2018-07-01T00:19:43.665Z,36.19
2018-07-01T00:20:43.691Z,36.30
2018-07-01T00:21:43.718Z,36.11
2018-07-01T00:22:43.740Z,36.21
2018-07-01T00:23:43.764Z,36.11
2018-07-01T00:24:43.788Z,36.01
2018-07-01T00:25:43.815Z,36.01
2018-07-01T00:26:43.830Z,36.01
2018-07-01T00:27:43.859Z,35.92
2018-07-01T00:28:43.882Z,35.90
2018-07-01T00:29:43.902Z,35.61
2018-07-01T00:30:43.923Z,35.90
2018-07-01T00:31:43.944Z,35.80
2018-07-01T00:32:43.971Z,35.80
2018-07-01T00:33:43.995Z,35.90
2018-07-01T00:34:44.018Z,35.92
2018-07-01T00:35:44.040Z,35.63
2018-07-01T00:36:44.066Z,35.90
2018-07-01T00:37:44.090Z,35.92
2018-07-01T00:38:44.113Z,35.90
2018-07-01T00:39:44.134Z,36.11
2018-07-01T00:40:44.159Z,36.11
2018-07-01T00:41:44.176Z,35.80
2018-07-01T00:42:44.201Z,36.11
2018-07-01T00:43:44.231Z,36.09
2018-07-01T00:44:44.252Z,36.01
2018-07-01T00:45:44.271Z,36.19
2018-07-01T00:46:44.294Z,36.29
2018-07-01T00:47:44.322Z,36.29
2018-07-01T00:48:44.343Z,36.48
2018-07-01T00:49:44.368Z,36.40
2018-07-01T00:50:44.391Z,36.48
2018-07-01T00:51:44.410Z,36.48
2018-07-01T00:52:44.435Z,36.29
2018-07-01T00:53:44.463Z,36.29
2018-07-01T00:54:44.484Z,36.19
2018-07-01T00:55:44.510Z,36.09
2018-07-01T00:56:44.532Z,36.19
2018-07-01T00:57:44.551Z,36.19
2018-07-01T00:58:44.574Z,36.29
2018-07-01T00:59:44.605Z,36.19
2018-07-01T01:00:44.621Z,36.19
2018-07-01T01:01:44.648Z,36.09
2018-07-01T01:02:44.680Z,36.19
2018-07-01T01:03:44.689Z,36.48
2018-07-01T01:04:44.771Z,36.09
2018-07-01T01:05:44.763Z,36.48
2018-07-01T01:06:44.773Z,36.38
2018-07-01T01:07:44.786Z,36.29
2018-07-01T01:08:44.811Z,36.38
2018-07-01T01:09:44.830Z,36.48
2018-07-01T01:10:44.853Z,36.29
2018-07-01T01:11:44.877Z,36.38
2018-07-01T01:12:44.896Z,36.38
2018-07-01T01:13:44.925Z,36.48
2018-07-01T01:14:44.949Z,36.48
2018-07-01T01:15:44.967Z,36.38
2018-07-01T01:16:44.993Z,36.48
2018-07-01T01:17:45.019Z,36.48
2018-07-01T01:18:45.043Z,36.48
2018-07-01T01:19:45.071Z,36.48
2018-07-01T01:20:45.089Z,36.38
2018-07-01T01:21:45.118Z,36.77
2018-07-01T01:22:45.132Z,36.48
2018-07-01T01:23:45.160Z,36.67
2018-07-01T01:24:45.180Z,36.48
2018-07-01T01:25:45.200Z,36.77
2018-07-01T01:26:45.222Z,36.38
2018-07-01T01:27:45.243Z,36.48
2018-07-01T01:28:45.271Z,36.57
2018-07-01T01:29:45.299Z,36.57
2018-07-01T01:30:45.320Z,36.57
2018-07-01T01:31:45.340Z,36.48
2018-07-01T01:32:45.373Z,36.57
2018-07-01T01:33:45.391Z,36.67
2018-07-01T01:34:45.414Z,36.67
2018-07-01T01:35:45.435Z,36.87
2018-07-01T01:36:45.459Z,36.77
2018-07-01T01:37:45.477Z,36.67
2018-07-01T01:38:45.500Z,36.67
2018-07-01T01:39:45.538Z,36.77
2018-07-01T01:40:45.552Z,36.67
2018-07-01T01:41:45.573Z,36.87
2018-07-01T01:42:45.595Z,36.67
2018-07-01T01:43:45.617Z,36.87
2018-07-01T01:44:45.640Z,36.77
2018-07-01T01:45:45.668Z,36.67
2018-07-01T01:46:45.691Z,36.57
2018-07-01T01:47:45.710Z,36.67
2018-07-01T01:48:45.733Z,36.57
2018-07-01T01:49:45.761Z,36.87
2018-07-01T01:50:45.785Z,36.48
2018-07-01T01:51:45.806Z,36.48
2018-07-01T01:52:45.830Z,36.57
2018-07-01T01:53:45.850Z,36.77
2018-07-01T01:54:45.872Z,36.67
2018-07-01T01:55:45.901Z,36.77
2018-07-01T01:56:45.921Z,36.57
2018-07-01T01:57:45.946Z,36.48
2018-07-01T01:58:45.964Z,36.77
2018-07-01T01:59:45.989Z,36.96
2018-07-01T02:00:46.017Z,36.87
2018-07-01T02:01:46.040Z,37.06
2018-07-01T02:02:46.061Z,36.87
2018-07-01T02:03:46.083Z,36.77
2018-07-01T02:04:46.102Z,36.96
2018-07-01T02:05:46.133Z,36.96
2018-07-01T02:06:46.152Z,36.87
2018-07-01T02:07:46.178Z,36.87
2018-07-01T02:08:46.200Z,36.96
2018-07-01T02:09:46.220Z,36.96
2018-07-01T02:10:46.243Z,37.06
2018-07-01T02:11:46.270Z,37.06
2018-07-01T02:12:46.289Z,37.06
2018-07-01T02:13:46.310Z,37.15
2018-07-01T02:14:46.334Z,36.87
2018-07-01T02:15:46.361Z,37.15
2018-07-01T02:16:46.381Z,37.06
2018-07-01T02:17:46.409Z,36.87
2018-07-01T02:18:46.430Z,36.96
2018-07-01T02:19:46.450Z,36.96
2018-07-01T02:20:46.474Z,36.96
2018-07-01T02:21:46.500Z,37.06
2018-07-01T02:22:46.523Z,37.35
2018-07-01T02:23:46.545Z,37.45
2018-07-01T02:24:46.575Z,37.06
2018-07-01T02:25:46.590Z,37.15
2018-07-01T02:26:46.611Z,37.15
2018-07-01T02:27:46.640Z,37.35
2018-07-01T02:28:46.661Z,37.25
2018-07-01T02:29:46.681Z,37.35
2018-07-01T02:30:46.704Z,37.35
2018-07-01T02:31:46.726Z,37.25
2018-07-01T02:32:46.748Z,37.25
2018-07-01T02:33:46.777Z,37.25
2018-07-01T02:34:46.797Z,37.35
2018-07-01T02:35:46.817Z,37.25
2018-07-01T02:36:46.840Z,37.35
2018-07-01T02:37:46.873Z,37.45
2018-07-01T02:38:46.895Z,37.35
2018-07-01T02:39:46.915Z,37.25
2018-07-01T02:40:46.938Z,37.35
2018-07-01T02:41:46.962Z,37.35
2018-07-01T02:42:46.980Z,37.35
2018-07-01T02:43:47.009Z,37.45
2018-07-01T02:44:47.029Z,37.25
2018-07-01T02:45:47.048Z,37.35
2018-07-01T02:46:47.073Z,37.35
2018-07-01T02:47:47.096Z,37.25
2018-07-01T02:48:47.118Z,37.45
2018-07-01T02:49:47.146Z,37.35
2018-07-01T02:50:47.167Z,37.35
2018-07-01T02:51:47.188Z,37.25
2018-07-01T02:52:47.210Z,37.06
2018-07-01T02:53:47.340Z,37.06
2018-07-01T02:54:47.262Z,36.96
2018-07-01T02:55:47.284Z,37.35
2018-07-01T02:56:47.304Z,37.35
2018-07-01T02:57:47.331Z,37.35
2018-07-01T02:58:47.350Z,37.15
2018-07-01T02:59:47.375Z,37.15
2018-07-01T03:00:47.399Z,37.35
2018-07-01T03:01:47.418Z,37.35
2018-07-01T03:02:47.440Z,37.25
2018-07-01T03:03:47.466Z,37.35
2018-07-01T03:04:47.485Z,37.35
2018-07-01T03:05:47.517Z,37.25
2018-07-01T03:06:47.543Z,37.25
2018-07-01T03:07:47.558Z,37.35
2018-07-01T03:08:47.579Z,37.25
2018-07-01T03:09:47.606Z,37.25
2018-07-01T03:10:47.629Z,36.96
2018-07-01T03:11:47.649Z,36.96
2018-07-01T03:12:47.673Z,37.06
2018-07-01T03:13:47.693Z,36.87
2018-07-01T03:14:47.716Z,36.87
2018-07-01T03:15:47.746Z,36.48
2018-07-01T03:16:47.768Z,36.67
2018-07-01T03:17:47.788Z,36.48
2018-07-01T03:18:47.812Z,36.30
2018-07-01T03:19:47.830Z,35.94
2018-07-01T03:20:47.853Z,35.36
2018-07-01T03:21:47.882Z,34.89
2018-07-01T03:22:47.903Z,34.70
2018-07-01T03:23:47.924Z,33.84
2018-07-01T03:24:47.945Z,33.65
2018-07-01T03:25:47.973Z,33.18
2018-07-01T03:26:47.996Z,32.70
2018-07-01T03:27:48.023Z,32.51
2018-07-01T03:28:48.046Z,32.14
2018-07-01T03:29:48.065Z,32.06
2018-07-01T03:30:48.089Z,31.47
2018-07-01T03:31:48.115Z,31.37
2018-07-01T03:32:48.140Z,31.10
2018-07-01T03:33:48.157Z,31.01
2018-07-01T03:34:48.188Z,30.63
2018-07-01T03:35:48.209Z,30.05
2018-07-01T03:36:48.228Z,29.66
2018-07-01T03:37:48.258Z,29.97
2018-07-01T03:38:48.285Z,29.21
2018-07-01T03:39:48.303Z,28.81
2018-07-01T03:40:48.326Z,28.90
2018-07-01T03:41:48.355Z,28.90
2018-07-01T03:42:48.378Z,29.00
2018-07-01T03:43:48.401Z,29.19
2018-07-01T03:44:48.429Z,29.28
2018-07-01T03:45:48.447Z,29.38
2018-07-01T03:46:48.474Z,29.68
2018-07-01T03:47:48.503Z,29.66
2018-07-01T03:48:48.528Z,29.68
2018-07-01T03:49:48.549Z,29.57
2018-07-01T03:50:48.575Z,29.77
2018-07-01T03:51:48.596Z,29.68
2018-07-01T03:52:48.621Z,29.19
2018-07-01T03:53:48.658Z,28.72
2018-07-01T03:54:48.675Z,28.64
2018-07-01T03:55:48.697Z,28.26
2018-07-01T03:56:48.724Z,27.59
2018-07-01T03:57:48.896Z,26.82
2018-07-01T03:58:48.777Z,26.44
2018-07-01T03:59:48.806Z,26.07
2018-07-01T04:00:48.831Z,25.89
2018-07-01T04:01:48.852Z,25.40
2018-07-01T04:02:48.879Z,25.12
2018-07-01T04:03:48.906Z,24.83
2018-07-01T04:04:48.931Z,24.26
2018-07-01T04:05:48.952Z,24.16
2018-07-01T04:06:48.979Z,23.88
2018-07-01T04:07:49.007Z,23.78
2018-07-01T04:08:49.034Z,23.40
2018-07-01T04:09:49.065Z,23.30
2018-07-01T04:10:49.096Z,22.73
2018-07-01T04:11:49.110Z,22.73
2018-07-01T04:12:49.134Z,22.53
2018-07-01T04:13:49.166Z,22.16
2018-07-01T04:14:49.190Z,22.06
2018-07-01T04:15:49.218Z,22.27
2018-07-01T04:16:49.249Z,21.68
2018-07-01T04:17:49.271Z,21.39
2018-07-01T04:18:49.295Z,21.30
2018-07-01T04:19:49.324Z,20.90
2018-07-01T04:20:49.352Z,21.11
2018-07-01T04:21:49.376Z,20.62
2018-07-01T04:22:49.402Z,20.62
2018-07-01T04:23:49.432Z,20.63
2018-07-01T04:24:49.458Z,20.04
2018-07-01T04:25:49.489Z,20.15
2018-07-01T04:26:49.523Z,19.76
2018-07-01T04:27:49.544Z,19.67
2018-07-01T04:28:49.577Z,19.48
2018-07-01T04:29:49.604Z,19.28
2018-07-01T04:30:49.634Z,19.10
2018-07-01T04:31:49.660Z,18.90
2018-07-01T04:32:49.697Z,19.01
2018-07-01T04:33:49.712Z,18.62
2018-07-01T04:34:49.746Z,18.62
2018-07-01T04:35:49.776Z,17.94
2018-07-01T04:36:49.805Z,18.23
2018-07-01T04:37:49.832Z,17.84
2018-07-01T04:38:49.863Z,18.04
2018-07-01T04:39:49.892Z,17.75
2018-07-01T04:40:49.919Z,17.56
2018-07-01T04:41:49.953Z,17.27
2018-07-01T04:42:49.984Z,16.78
2018-07-01T04:43:50.010Z,16.78
2018-07-01T04:44:50.040Z,16.99
2018-07-01T04:45:50.076Z,16.89
2018-07-01T04:46:50.105Z,16.80
2018-07-01T04:47:50.143Z,16.69
2018-07-01T04:48:50.170Z,16.61
2018-07-01T04:49:50.197Z,16.51
2018-07-01T04:50:50.227Z,16.32
2018-07-01T04:51:50.260Z,16.22
2018-07-01T04:52:50.292Z,15.92
2018-07-01T04:53:50.320Z,15.73
2018-07-01T04:54:50.350Z,16.23
2018-07-01T04:55:50.385Z,15.44
2018-07-01T04:56:50.418Z,15.44
2018-07-01T04:57:50.455Z,15.54
2018-07-01T04:58:50.488Z,15.16
2018-07-01T04:59:50.513Z,15.25
2018-07-01T05:00:50.551Z,15.25
2018-07-01T05:01:50.595Z,14.96
2018-07-01T05:02:50.614Z,15.16
2018-07-01T05:03:50.646Z,15.16
2018-07-01T05:04:50.680Z,14.97
2018-07-01T05:05:50.709Z,14.97
2018-07-01T05:06:50.740Z,15.16
2018-07-01T05:07:50.780Z,14.86
2018-07-01T05:08:50.812Z,15.25
2018-07-01T05:09:50.842Z,15.53
2018-07-01T05:10:50.874Z,16.02
2018-07-01T05:11:50.907Z,16.30
2018-07-01T05:12:50.942Z,16.50
2018-07-01T05:13:50.979Z,16.68
2018-07-01T05:14:51.012Z,17.17
2018-07-01T05:15:51.048Z,17.26
2018-07-01T05:16:51.081Z,17.55
2018-07-01T05:17:51.111Z,17.74
2018-07-01T05:18:51.143Z,17.94
2018-07-01T05:19:51.180Z,18.03
2018-07-01T05:20:51.214Z,18.32
2018-07-01T05:21:51.256Z,18.13
2018-07-01T05:22:51.285Z,18.62
2018-07-01T05:23:51.321Z,18.60
2018-07-01T05:24:51.349Z,18.70
2018-07-01T05:25:51.391Z,18.99
2018-07-01T05:26:51.422Z,19.09
2018-07-01T05:27:51.470Z,18.70
2018-07-01T05:28:51.493Z,19.28
2018-07-01T05:29:51.528Z,19.09
2018-07-01T05:30:51.557Z,18.99
2018-07-01T05:31:51.595Z,19.27
2018-07-01T05:32:51.630Z,19.27
2018-07-01T05:33:51.662Z,19.57
2018-07-01T05:34:51.697Z,19.67
2018-07-01T05:35:51.727Z,19.76
2018-07-01T05:36:51.761Z,19.85
2018-07-01T05:37:51.799Z,19.85
2018-07-01T05:38:51.832Z,19.75
2018-07-01T05:39:51.865Z,19.65
2018-07-01T05:40:51.898Z,19.75
2018-07-01T05:41:51.932Z,19.85
2018-07-01T05:42:51.967Z,19.56
2018-07-01T05:43:52.000Z,19.08
2018-07-01T05:44:52.033Z,18.79
2018-07-01T05:45:52.061Z,18.51
2018-07-01T05:46:52.094Z,18.03
2018-07-01T05:47:52.131Z,17.36
2018-07-01T05:48:52.163Z,16.78
2018-07-01T05:49:52.192Z,16.78
2018-07-01T05:50:52.225Z,16.30
2018-07-01T05:51:52.258Z,15.92
2018-07-01T05:52:52.291Z,15.72
2018-07-01T05:53:52.330Z,15.44
2018-07-01T05:54:52.359Z,15.23
2018-07-01T05:55:52.384Z,14.85
2018-07-01T05:56:52.416Z,14.85
2018-07-01T05:57:52.455Z,14.75
2018-07-01T05:58:52.483Z,14.47
2018-07-01T05:59:52.517Z,14.66
2018-07-01T06:00:52.548Z,14.37
2018-07-01T06:01:52.576Z,14.28
2018-07-01T06:02:52.606Z,14.18
2018-07-01T06:03:52.643Z,14.07
2018-07-01T06:04:52.676Z,14.37
2018-07-01T06:05:52.703Z,13.69
2018-07-01T06:06:52.733Z,13.79
2018-07-01T06:07:52.762Z,13.69
2018-07-01T06:08:52.794Z,13.69
2018-07-01T06:09:52.830Z,13.50
2018-07-01T06:10:52.862Z,13.20
2018-07-01T06:11:52.892Z,13.20
2018-07-01T06:12:52.923Z,13.31
2018-07-01T06:13:52.960Z,13.20
2018-07-01T06:14:52.989Z,13.10
2018-07-01T06:15:53.021Z,13.31
2018-07-01T06:16:53.127Z,13.10
2018-07-01T06:17:53.080Z,13.11
2018-07-01T06:18:53.113Z,13.31
2018-07-01T06:19:53.153Z,13.31
2018-07-01T06:20:53.185Z,13.01
2018-07-01T06:21:53.214Z,12.92
2018-07-01T06:22:53.244Z,12.82
2018-07-01T06:23:53.276Z,12.73
2018-07-01T06:24:53.309Z,12.92
2018-07-01T06:25:53.346Z,13.11
2018-07-01T06:26:53.376Z,13.20
2018-07-01T06:27:53.410Z,13.19
2018-07-01T06:28:53.443Z,14.15
2018-07-01T06:29:53.481Z,15.12
2018-07-01T06:30:53.515Z,15.41
2018-07-01T06:31:53.544Z,16.18
2018-07-01T06:32:53.601Z,16.66
2018-07-01T06:33:53.610Z,16.94
2018-07-01T06:34:53.638Z,17.52
2018-07-01T06:35:53.677Z,17.72
2018-07-01T06:36:53.710Z,18.00
2018-07-01T06:37:53.739Z,18.19
2018-07-01T06:38:53.770Z,18.68
2018-07-01T06:39:53.807Z,18.77
2018-07-01T06:40:53.837Z,19.16
2018-07-01T06:41:53.911Z,18.85
2018-07-01T06:42:53.907Z,18.85
2018-07-01T06:43:53.932Z,19.14
2018-07-01T06:44:53.963Z,19.34
2018-07-01T06:45:54.010Z,19.14
2018-07-01T06:46:54.032Z,19.82
2018-07-01T06:47:54.062Z,19.62
2018-07-01T06:48:54.096Z,19.71
2018-07-01T06:49:54.123Z,19.81
2018-07-01T06:50:54.155Z,20.09
2018-07-01T06:51:54.186Z,20.00
2018-07-01T06:52:54.218Z,20.29
2018-07-01T06:53:54.246Z,20.48
2018-07-01T06:54:54.276Z,20.39
2018-07-01T06:55:54.306Z,20.48
2018-07-01T06:56:54.335Z,20.48
2018-07-01T06:57:54.370Z,20.77
2018-07-01T06:58:54.397Z,20.96
2018-07-01T06:59:54.427Z,20.86
2018-07-01T07:00:54.461Z,20.86
2018-07-01T07:01:54.490Z,21.25
2018-07-01T07:02:54.519Z,21.25
2018-07-01T07:03:54.549Z,21.34
2018-07-01T07:04:54.575Z,21.34
2018-07-01T07:05:54.607Z,21.34
2018-07-01T07:06:54.644Z,21.33
2018-07-01T07:07:54.701Z,21.34
2018-07-01T07:08:54.697Z,21.43
2018-07-01T07:09:54.721Z,21.43
2018-07-01T07:10:54.755Z,21.43
2018-07-01T07:11:54.783Z,21.53
2018-07-01T07:12:54.817Z,21.53
2018-07-01T07:13:54.857Z,21.43
2018-07-01T07:14:54.889Z,21.72
2018-07-01T07:15:54.895Z,21.62
2018-07-01T07:16:54.932Z,21.82
2018-07-01T07:17:54.961Z,21.92
2018-07-01T07:18:54.993Z,22.20
2018-07-01T07:19:55.021Z,22.00
2018-07-01T07:20:55.046Z,21.91
2018-07-01T07:21:55.074Z,22.00
2018-07-01T07:22:55.103Z,21.81
2018-07-01T07:23:55.133Z,22.00
2018-07-01T07:24:55.163Z,22.20
2018-07-01T07:25:55.193Z,21.91
2018-07-01T07:26:55.220Z,22.10
2018-07-01T07:27:55.248Z,22.00
2018-07-01T07:28:55.271Z,22.09
2018-07-01T07:29:55.302Z,22.19
2018-07-01T07:30:55.340Z,22.09
2018-07-01T07:31:55.399Z,22.19
2018-07-01T07:32:55.413Z,22.38
2018-07-01T07:33:55.418Z,22.48
2018-07-01T07:34:55.437Z,22.38
2018-07-01T07:35:55.474Z,22.58
2018-07-01T07:36:55.504Z,22.19
2018-07-01T07:37:55.533Z,22.48
2018-07-01T07:38:55.557Z,22.48
2018-07-01T07:39:55.586Z,22.58
2018-07-01T07:40:55.615Z,22.67
2018-07-01T07:41:55.646Z,22.56
2018-07-01T07:42:55.675Z,22.56
2018-07-01T07:43:55.702Z,22.56
2018-07-01T07:44:55.739Z,22.86
2018-07-01T07:45:55.755Z,22.76
2018-07-01T07:46:55.785Z,22.76
2018-07-01T07:47:55.816Z,22.86
2018-07-01T07:48:55.837Z,22.66
2018-07-01T07:49:55.865Z,22.76
2018-07-01T07:50:55.895Z,22.86
2018-07-01T07:51:55.923Z,22.76
2018-07-01T07:52:55.955Z,22.76
2018-07-01T07:53:55.982Z,22.76
2018-07-01T07:54:56.006Z,22.76
2018-07-01T07:55:56.032Z,22.66
2018-07-01T07:56:56.065Z,22.66
2018-07-01T07:57:56.092Z,22.66
2018-07-01T07:58:56.118Z,22.85
2018-07-01T07:59:56.147Z,22.94
2018-07-01T08:00:56.171Z,22.75
2018-07-01T08:01:56.214Z,22.85
2018-07-01T08:02:56.230Z,22.65
2018-07-01T08:03:56.257Z,23.14
2018-07-01T08:04:56.284Z,23.43
2018-07-01T08:05:56.310Z,23.33
2018-07-01T08:06:56.335Z,23.33
2018-07-01T08:07:56.363Z,23.43
2018-07-01T08:08:56.392Z,23.43
2018-07-01T08:09:56.422Z,23.43
2018-07-01T08:10:56.444Z,23.43
2018-07-01T08:11:56.472Z,23.24
2018-07-01T08:12:56.508Z,23.62
2018-07-01T08:13:56.532Z,23.71
2018-07-01T08:14:56.564Z,23.52
2018-07-01T08:15:56.588Z,23.90
2018-07-01T08:16:56.613Z,23.42
2018-07-01T08:17:56.639Z,23.71
2018-07-01T08:18:56.666Z,23.61
2018-07-01T08:19:56.695Z,23.61
2018-07-01T08:20:56.720Z,23.71
2018-07-01T08:21:56.797Z,23.80
2018-07-01T08:22:56.775Z,23.80
2018-07-01T08:23:56.805Z,23.71
2018-07-01T08:24:56.832Z,23.80
2018-07-01T08:25:56.860Z,23.80
2018-07-01T08:26:56.881Z,23.90
2018-07-01T08:27:56.908Z,23.90
2018-07-01T08:28:56.955Z,23.80
2018-07-01T08:29:56.968Z,23.80
2018-07-01T08:30:56.996Z,23.90
2018-07-01T08:31:57.022Z,23.52
2018-07-01T08:32:57.046Z,23.79
2018-07-01T08:33:57.073Z,23.80
2018-07-01T08:34:57.104Z,23.79
2018-07-01T08:35:57.128Z,23.79
2018-07-01T08:36:57.152Z,23.79
2018-07-01T08:37:57.179Z,23.50
2018-07-01T08:38:57.212Z,23.79
2018-07-01T08:39:57.244Z,23.79
2018-07-01T08:40:57.276Z,23.79
2018-07-01T08:41:57.294Z,23.79
2018-07-01T08:42:57.314Z,23.89
2018-07-01T08:43:57.343Z,23.70
2018-07-01T08:44:57.375Z,23.70
2018-07-01T08:45:57.402Z,23.60
2018-07-01T08:46:57.425Z,23.41
2018-07-01T08:47:57.451Z,23.60
2018-07-01T08:48:57.475Z,23.31
2018-07-01T08:49:57.503Z,23.50
2018-07-01T08:50:57.534Z,23.31
2018-07-01T08:51:57.559Z,23.21
2018-07-01T08:52:57.583Z,23.31
2018-07-01T08:53:57.610Z,23.31
2018-07-01T08:54:57.634Z,23.31
2018-07-01T08:55:57.668Z,23.31
2018-07-01T08:56:57.694Z,23.30
2018-07-01T08:57:57.722Z,23.39
2018-07-01T08:58:57.741Z,23.30
2018-07-01T08:59:57.770Z,23.30
2018-07-01T09:00:57.798Z,23.30
2018-07-01T09:01:57.826Z,23.00
2018-07-01T09:02:57.854Z,23.30
2018-07-01T09:03:57.880Z,23.10
2018-07-01T09:04:57.904Z,23.00
2018-07-01T09:05:57.931Z,22.91
2018-07-01T09:06:57.958Z,22.72
2018-07-01T09:07:57.986Z,22.91
2018-07-01T09:08:58.009Z,22.72
2018-07-01T09:09:58.035Z,22.62
2018-07-01T09:10:58.061Z,22.72
2018-07-01T09:11:58.090Z,22.81
2018-07-01T09:12:58.121Z,22.72
2018-07-01T09:13:58.145Z,22.81
2018-07-01T09:14:58.168Z,22.62
2018-07-01T09:15:58.199Z,22.62
2018-07-01T09:16:58.284Z,22.81
2018-07-01T09:17:58.254Z,22.72
2018-07-01T09:18:58.275Z,22.62
2018-07-01T09:19:58.303Z,22.62
2018-07-01T09:20:58.325Z,22.62
2018-07-01T09:21:58.353Z,22.62
2018-07-01T09:22:58.383Z,22.72
2018-07-01T09:23:58.412Z,23.00
2018-07-01T09:24:58.433Z,23.00
2018-07-01T09:25:58.460Z,22.62
2018-07-01T09:26:58.497Z,22.90
2018-07-01T09:27:58.509Z,23.00
2018-07-01T09:28:58.618Z,22.99
2018-07-01T09:29:58.568Z,23.09
2018-07-01T09:30:58.593Z,23.38
2018-07-01T09:31:58.619Z,23.28
2018-07-01T09:32:58.642Z,23.28
2018-07-01T09:33:58.669Z,23.28
2018-07-01T09:34:58.695Z,23.28
2018-07-01T09:35:58.722Z,23.48
2018-07-01T09:36:58.753Z,23.48
2018-07-01T09:37:58.778Z,23.58
2018-07-01T09:38:58.799Z,23.19
2018-07-01T09:39:58.825Z,23.68
2018-07-01T09:40:58.856Z,23.58
2018-07-01T09:41:58.882Z,23.58
2018-07-01T09:42:58.910Z,23.48
2018-07-01T09:43:58.934Z,23.48
2018-07-01T09:44:58.959Z,23.48
2018-07-01T09:45:58.985Z,23.68
2018-07-01T09:46:59.014Z,23.58
2018-07-01T09:47:59.039Z,23.68
2018-07-01T09:48:59.063Z,23.68
2018-07-01T09:49:59.090Z,23.58
2018-07-01T09:50:59.114Z,23.86
2018-07-01T09:51:59.153Z,23.77
2018-07-01T09:52:59.168Z,23.68
2018-07-01T09:53:59.196Z,23.68
2018-07-01T09:54:59.217Z,23.87
2018-07-01T09:55:59.245Z,23.77
2018-07-01T09:56:59.275Z,23.86
2018-07-01T09:57:59.303Z,23.76
2018-07-01T09:58:59.328Z,23.95
2018-07-01T09:59:59.352Z,23.95
2018-07-01T10:00:59.383Z,23.86
2018-07-01T10:01:59.401Z,23.57
2018-07-01T10:02:59.429Z,23.86
2018-07-01T10:03:59.456Z,23.86
2018-07-01T10:04:59.477Z,23.95
2018-07-01T10:05:59.504Z,23.76
2018-07-01T10:06:59.529Z,23.86
2018-07-01T10:07:59.557Z,24.05
2018-07-01T10:08:59.586Z,23.76
2018-07-01T10:09:59.613Z,23.76
2018-07-01T10:10:59.632Z,23.66
2018-07-01T10:11:59.705Z,23.57
2018-07-01T10:12:59.692Z,23.57
2018-07-01T10:13:59.718Z,23.76
2018-07-01T10:14:59.742Z,24.05
2018-07-01T10:15:59.775Z,23.95
2018-07-01T10:16:59.793Z,23.95
2018-07-01T10:17:59.816Z,24.05
2018-07-01T10:18:59.848Z,24.05
2018-07-01T10:19:59.872Z,24.05
2018-07-01T10:20:59.900Z,23.95
2018-07-01T10:21:59.919Z,24.24
2018-07-01T10:22:59.942Z,24.15
2018-07-01T10:23:59.972Z,24.34
2018-07-01T10:24:59.997Z,24.34
2018-07-01T10:26:00.030Z,24.34
2018-07-01T10:27:00.047Z,24.54
2018-07-01T10:28:00.076Z,24.63
2018-07-01T10:29:00.107Z,24.63
2018-07-01T10:30:00.136Z,24.54
2018-07-01T10:31:00.153Z,24.34
2018-07-01T10:32:00.178Z,24.34
2018-07-01T10:33:00.201Z,24.92
2018-07-01T10:34:00.228Z,24.82
2018-07-01T10:35:00.257Z,24.72
2018-07-01T10:36:00.282Z,24.73
2018-07-01T10:37:00.305Z,24.83
2018-07-01T10:38:00.332Z,24.62
2018-07-01T10:39:00.355Z,24.52
2018-07-01T10:40:00.381Z,24.34
2018-07-01T10:41:00.412Z,24.52
2018-07-01T10:42:00.437Z,24.52
2018-07-01T10:43:00.459Z,24.52
2018-07-01T10:44:00.490Z,24.43
2018-07-01T10:45:00.515Z,24.54
2018-07-01T10:46:00.536Z,24.44
2018-07-01T10:47:00.564Z,24.62
2018-07-01T10:48:00.592Z,24.62
2018-07-01T10:49:00.615Z,24.62
2018-07-01T10:50:00.639Z,24.52
2018-07-01T10:51:00.667Z,24.62
2018-07-01T10:52:00.691Z,24.52
2018-07-01T10:53:00.716Z,24.62
2018-07-01T10:54:00.740Z,24.52
2018-07-01T10:55:00.768Z,24.72
2018-07-01T10:56:00.793Z,24.52
2018-07-01T10:57:00.821Z,24.52
2018-07-01T10:58:00.852Z,24.52
2018-07-01T10:59:00.867Z,24.43
2018-07-01T11:00:00.897Z,24.62
2018-07-01T11:01:00.923Z,24.72
2018-07-01T11:02:00.952Z,24.72
2018-07-01T11:03:00.976Z,24.72
2018-07-01T11:04:01.006Z,24.52
2018-07-01T11:05:01.028Z,24.52
2018-07-01T11:06:01.086Z,24.52
2018-07-01T11:07:01.079Z,24.72
2018-07-01T11:08:01.106Z,24.72
2018-07-01T11:09:01.125Z,24.52
2018-07-01T11:10:01.152Z,24.72
2018-07-01T11:11:01.178Z,24.82
2018-07-01T11:12:01.200Z,24.72
2018-07-01T11:13:01.232Z,24.72
2018-07-01T11:14:01.257Z,24.72
2018-07-01T11:15:01.279Z,24.52
2018-07-01T11:16:01.305Z,24.52
2018-07-01T11:17:01.335Z,24.62
2018-07-01T11:18:01.370Z,24.43
2018-07-01T11:19:01.385Z,24.43
2018-07-01T11:20:01.410Z,24.62
2018-07-01T11:21:01.435Z,24.62
2018-07-01T11:22:01.457Z,24.62
2018-07-01T11:23:01.487Z,24.62
2018-07-01T11:24:01.511Z,24.52
2018-07-01T11:25:01.535Z,24.72
2018-07-01T11:26:01.557Z,24.62
2018-07-01T11:27:01.851Z,24.62
2018-07-01T11:28:01.610Z,24.72
2018-07-01T11:29:01.640Z,24.62
2018-07-01T11:30:01.669Z,24.43
2018-07-01T11:31:01.687Z,24.62
2018-07-01T11:32:01.710Z,24.62
2018-07-01T11:33:01.739Z,24.62
2018-07-01T11:34:01.765Z,24.62
2018-07-01T11:35:01.840Z,24.62
2018-07-01T11:36:01.817Z,24.52
2018-07-01T11:37:01.901Z,24.62
2018-07-01T11:38:01.869Z,24.72
2018-07-01T11:39:01.888Z,24.52
2018-07-01T11:40:01.915Z,24.72
2018-07-01T11:41:01.943Z,24.62
2018-07-01T11:42:01.970Z,24.43
2018-07-01T11:43:01.996Z,24.52
2018-07-01T11:44:02.022Z,24.62
2018-07-01T11:45:02.043Z,24.52
2018-07-01T11:46:02.079Z,24.62
2018-07-01T11:47:02.095Z,24.43
2018-07-01T11:48:02.125Z,24.62
2018-07-01T11:49:02.143Z,24.52
2018-07-01T11:50:02.183Z,24.43
2018-07-01T11:51:02.195Z,24.62
2018-07-01T11:52:02.221Z,24.62
2018-07-01T11:53:02.251Z,24.52
2018-07-01T11:54:02.279Z,24.72
2018-07-01T11:55:02.296Z,24.62
2018-07-01T11:56:02.322Z,24.52
2018-07-01T11:57:02.352Z,24.33
2018-07-01T11:58:02.384Z,24.43
2018-07-01T11:59:02.400Z,24.62
2018-07-01T12:00:02.467Z,24.62
2018-07-01T12:01:02.447Z,24.62
2018-07-01T12:02:02.472Z,24.72
2018-07-01T12:03:02.505Z,24.62
2018-07-01T12:04:02.580Z,24.62
2018-07-01T12:05:16.202Z,24.43
2018-07-01T12:06:02.577Z,24.52
2018-07-01T12:07:02.598Z,24.52
2018-07-01T12:08:02.624Z,24.72
2018-07-01T12:09:02.655Z,24.33
2018-07-01T12:10:02.679Z,24.43
2018-07-01T12:11:02.700Z,24.52
2018-07-01T12:12:02.773Z,24.62
2018-07-01T12:13:02.755Z,24.43
2018-07-01T12:14:02.788Z,24.43
2018-07-01T12:15:02.807Z,24.62
2018-07-01T12:16:02.833Z,24.61
2018-07-01T12:17:02.854Z,24.62
2018-07-01T12:18:02.880Z,24.51
2018-07-01T12:19:02.909Z,24.43
2018-07-01T12:20:02.931Z,24.61
2018-07-01T12:21:02.953Z,24.52
2018-07-01T12:22:02.979Z,24.52
2018-07-01T12:23:03.005Z,24.62
2018-07-01T12:24:03.031Z,24.62
2018-07-01T12:25:03.061Z,24.62
2018-07-01T12:26:03.084Z,24.61
2018-07-01T12:27:03.106Z,24.72
2018-07-01T12:28:03.131Z,24.80
2018-07-01T12:29:03.161Z,24.82
2018-07-01T12:30:03.186Z,24.62
2018-07-01T12:31:03.209Z,24.82
2018-07-01T12:32:03.237Z,24.72
2018-07-01T12:33:03.256Z,24.61
2018-07-01T12:34:03.281Z,24.61
2018-07-01T12:35:03.312Z,24.61
2018-07-01T12:36:03.339Z,24.61
2018-07-01T12:37:03.359Z,24.72
2018-07-01T12:38:03.384Z,24.51
2018-07-01T12:39:03.411Z,24.61
2018-07-01T12:40:03.432Z,24.90
2018-07-01T12:41:03.463Z,24.61
2018-07-01T12:42:03.594Z,24.80
2018-07-01T12:43:03.517Z,24.90
2018-07-01T12:44:03.534Z,24.90
2018-07-01T12:45:03.564Z,24.90
2018-07-01T12:46:03.592Z,24.91
2018-07-01T12:47:03.612Z,24.99
2018-07-01T12:48:03.639Z,24.91
2018-07-01T12:49:03.662Z,24.61
2018-07-01T12:50:03.688Z,24.61
2018-07-01T12:51:03.716Z,24.90
2018-07-01T12:52:03.740Z,24.90
2018-07-01T12:53:03.762Z,24.90